createdAt,value
2022-12-14T00:01:48.931Z,89.39
2022-12-14T00:11:46.783Z,89.71
2022-12-14T00:21:46.057Z,90.66
2022-12-14T00:31:48.831Z,89.71
2022-12-14T00:41:46.433Z,88.66
2022-12-14T00:51:46.470Z,89.39
2022-12-14T01:01:46.879Z,89.29
2022-12-14T01:11:46.915Z,88.97
2022-12-14T01:21:47.165Z,88.76
2022-12-14T01:31:48.684Z,88.34
2022-12-14T01:41:48.611Z,88.45
2022-12-14T01:51:47.642Z,88.93
2022-12-14T02:01:48.349Z,89.18
2022-12-14T02:11:47.978Z,88.34
2022-12-14T02:21:48.267Z,88.55
2022-12-14T02:31:48.951Z,88.34
2022-12-14T02:41:48.662Z,88.45
2022-12-14T02:51:48.706Z,89.39
2022-12-14T03:01:49.190Z,89.39
2022-12-14T03:11:49.126Z,89.29
2022-12-14T03:21:49.378Z,88.55
2022-12-14T03:31:49.727Z,88.24
2022-12-14T03:41:49.861Z,87.40
2022-12-14T03:51:49.904Z,87.92
2022-12-14T04:01:50.302Z,88.70
2022-12-14T04:11:50.229Z,89.18
2022-12-14T04:21:50.507Z,90.02
2022-12-14T04:31:50.800Z,90.02
2022-12-14T04:41:50.862Z,90.19
2022-12-14T04:51:51.089Z,90.00
2022-12-14T05:01:51.454Z,90.11
2022-12-14T05:11:54.343Z,90.53
2022-12-14T05:21:51.908Z,91.16
2022-12-14T05:31:51.942Z,91.37
2022-12-14T05:41:53.211Z,91.62
2022-12-14T05:51:52.439Z,91.52
2022-12-14T06:01:52.808Z,91.83
2022-12-14T06:11:52.843Z,90.99
2022-12-14T06:21:56.194Z,89.54
2022-12-14T06:31:53.218Z,90.84
2022-12-14T06:41:53.493Z,91.12
2022-12-14T06:51:53.533Z,91.33
2022-12-14T07:01:53.964Z,91.79
2022-12-14T07:11:53.950Z,91.27
2022-12-14T07:21:54.024Z,92.16
2022-12-14T07:31:54.061Z,91.66
2022-12-14T07:41:54.399Z,91.72
2022-12-14T07:51:54.444Z,92.29
2022-12-14T08:01:56.373Z,93.34
2022-12-14T08:11:54.849Z,93.44
2022-12-14T08:21:55.137Z,93.13
2022-12-14T08:31:55.236Z,93.51
2022-12-14T08:41:55.320Z,94.13
2022-12-14T08:51:55.558Z,87.54
2022-12-14T09:01:56.050Z,83.51
2022-12-14T09:11:55.998Z,82.09
2022-12-14T09:21:56.301Z,82.54
2022-12-14T09:31:56.402Z,82.48
2022-12-14T09:42:00.785Z,84.31
2022-12-14T09:51:56.668Z,89.06
2022-12-14T10:11:58.060Z,91.87
2022-12-14T10:21:57.405Z,90.93
2022-12-14T10:31:57.508Z,91.39
2022-12-14T10:41:57.641Z,91.60
2022-12-14T10:51:57.669Z,92.22
2022-12-14T11:01:58.177Z,92.96
2022-12-14T11:11:58.013Z,92.25
2022-12-14T11:21:58.175Z,92.14
2022-12-14T11:31:58.212Z,88.87
2022-12-14T11:41:58.538Z,85.57
2022-12-14T11:51:58.566Z,84.16
2022-12-14T12:01:59.007Z,85.12
2022-12-14T12:11:59.068Z,85.16
2022-12-14T12:21:59.400Z,86.76
2022-12-14T12:32:00.087Z,87.73
2022-12-14T12:42:03.588Z,88.29
2022-12-14T12:52:00.613Z,90.66
2022-12-14T13:02:00.483Z,91.25
2022-12-14T13:11:59.764Z,91.39
2022-12-14T13:22:04.983Z,91.91
2022-12-14T13:32:01.172Z,92.29
2022-12-14T13:42:01.479Z,92.33
2022-12-14T13:52:00.507Z,92.79
2022-12-14T14:02:00.915Z,93.31
2022-12-14T14:12:00.970Z,93.66
2022-12-14T14:22:22.221Z,94.18
2022-12-14T14:32:02.478Z,94.70
2022-12-14T14:42:01.593Z,95.12
2022-12-14T14:52:03.646Z,95.95
2022-12-14T15:02:03.186Z,96.37
2022-12-14T15:12:01.920Z,96.37
2022-12-14T15:22:01.980Z,97.20
2022-12-14T15:32:02.309Z,97.41
2022-12-14T15:42:02.367Z,97.52
2022-12-14T15:52:02.662Z,97.41
2022-12-14T16:02:07.064Z,98.04
2022-12-14T16:12:03.771Z,98.60
2022-12-14T16:22:03.110Z,99.23
2022-12-14T16:32:03.214Z,99.44
2022-12-14T16:42:03.414Z,99.65
2022-12-14T16:52:08.041Z,99.65
2022-12-14T17:02:05.043Z,99.18
2022-12-14T17:12:04.056Z,98.26
2022-12-14T17:22:04.115Z,98.05
2022-12-14T17:32:04.522Z,97.70
2022-12-14T17:42:04.593Z,97.38
2022-12-14T17:52:05.057Z,96.70
2022-12-14T18:02:05.273Z,95.93
2022-12-14T18:22:06.265Z,95.76
2022-12-14T18:32:05.571Z,95.47
2022-12-14T18:42:08.888Z,95.78
2022-12-14T18:52:05.923Z,95.57
2022-12-14T19:02:06.340Z,96.76
2022-12-14T19:12:06.417Z,97.64
2022-12-14T19:22:06.719Z,97.80
2022-12-14T19:32:06.811Z,98.16
2022-12-14T19:42:07.022Z,98.36
2022-12-14T19:52:07.035Z,98.01
2022-12-14T20:02:08.872Z,98.31
2022-12-14T20:12:07.417Z,98.83
2022-12-14T20:22:07.632Z,99.24
2022-12-14T20:32:07.840Z,99.35
2022-12-14T20:42:07.832Z,99.45
2022-12-14T20:52:07.896Z,99.55
2022-12-14T21:02:08.382Z,99.66
2022-12-14T21:12:09.092Z,99.87
2022-12-14T21:22:08.463Z,99.99
2022-12-14T21:32:08.748Z,99.99
2022-12-14T21:42:08.840Z,99.76
2022-12-14T21:52:09.089Z,99.87
2022-12-14T22:02:09.519Z,99.20
2022-12-14T22:12:09.673Z,98.88
2022-12-14T22:22:09.780Z,99.35
2022-12-14T22:32:09.870Z,99.66
2022-12-14T22:42:10.035Z,99.87
2022-12-14T22:52:10.064Z,99.99
2022-12-14T23:02:10.546Z,99.99
2022-12-14T23:12:11.723Z,99.99
2022-12-14T23:22:10.794Z,99.99
2022-12-14T23:32:10.848Z,99.99
2022-12-14T23:42:11.152Z,99.52
2022-12-14T23:52:11.195Z,99.36
